createdAt,value
2018-06-25T00:01:27.217Z,12.70
2018-06-25T00:04:02.830Z,12.70
2018-06-25T00:06:38.316Z,12.70
2018-06-25T00:11:49.634Z,12.70
2018-06-25T00:14:24.991Z,12.80
2018-06-25T00:17:00.499Z,12.80
2018-06-25T00:19:36.889Z,12.80
2018-06-25T00:22:12.558Z,12.90
2018-06-25T00:24:48.020Z,12.90
2018-06-25T00:27:23.711Z,12.90
2018-06-25T00:29:58.916Z,13.00
2018-06-25T00:32:34.499Z,12.90
2018-06-25T00:35:09.967Z,12.90
2018-06-25T00:37:45.750Z,12.90
2018-06-25T00:40:21.563Z,12.80
2018-06-25T00:42:59.254Z,12.80
2018-06-25T00:45:34.439Z,12.80
2018-06-25T00:48:09.943Z,12.80
2018-06-25T00:50:45.527Z,12.90
2018-06-25T00:53:20.936Z,12.80
2018-06-25T00:55:56.439Z,12.80
2018-06-25T00:58:49.100Z,12.90
2018-06-25T01:01:24.298Z,12.90
2018-06-25T01:03:59.717Z,12.90
2018-06-25T01:11:48.312Z,12.80
2018-06-25T01:14:24.069Z,12.80
2018-06-25T01:16:59.318Z,12.80
2018-06-25T01:19:34.945Z,12.70
2018-06-25T01:22:11.098Z,12.70
2018-06-25T01:24:46.870Z,12.60
2018-06-25T01:27:22.350Z,12.60
2018-06-25T01:29:58.175Z,12.50
2018-06-25T01:32:33.654Z,12.50
2018-06-25T01:35:09.351Z,12.50
2018-06-25T01:37:44.846Z,12.60
2018-06-25T01:42:55.651Z,12.60
2018-06-25T01:45:31.133Z,12.70
2018-06-25T01:48:06.698Z,12.90
2018-06-25T01:50:42.325Z,12.80
2018-06-25T01:53:17.642Z,12.90
2018-06-25T01:55:53.321Z,12.90
2018-06-25T01:58:28.784Z,13.00
2018-06-25T02:01:04.505Z,13.10
2018-06-25T02:03:39.819Z,13.10
2018-06-25T02:06:15.306Z,13.10
2018-06-25T02:08:50.752Z,13.20
2018-06-25T02:11:26.598Z,13.20
2018-06-25T02:14:01.933Z,13.20
2018-06-25T02:19:12.620Z,13.20
2018-06-25T02:21:48.059Z,13.20
2018-06-25T02:24:23.314Z,13.20
2018-06-25T02:26:58.862Z,13.30
2018-06-25T02:29:34.189Z,13.20
2018-06-25T02:32:09.753Z,13.20
2018-06-25T02:34:45.012Z,13.30
2018-06-25T02:37:20.540Z,13.20
2018-06-25T02:39:55.961Z,13.30
2018-06-25T02:47:41.970Z,13.40
2018-06-25T02:50:17.561Z,13.40
2018-06-25T02:52:53.211Z,13.40
2018-06-25T02:58:04.193Z,13.40
2018-06-25T03:00:39.573Z,13.40
2018-06-25T03:03:15.099Z,13.40
2018-06-25T03:05:50.589Z,13.40
2018-06-25T03:08:26.082Z,13.40
2018-06-25T03:11:01.556Z,13.50
2018-06-25T03:13:36.974Z,13.50
2018-06-25T03:16:12.274Z,13.50
2018-06-25T03:18:47.757Z,13.50
2018-06-25T03:21:22.953Z,13.50
2018-06-25T03:23:58.654Z,13.60
2018-06-25T03:29:09.547Z,13.60
2018-06-25T03:31:45.025Z,13.70
2018-06-25T03:36:55.666Z,13.80
2018-06-25T03:39:31.243Z,13.90
2018-06-25T03:42:06.845Z,13.90
2018-06-25T03:44:42.635Z,14.00
2018-06-25T03:47:18.104Z,14.10
2018-06-25T03:49:53.724Z,14.20
2018-06-25T03:52:29.197Z,14.20
2018-06-25T03:55:04.811Z,14.10
2018-06-25T03:57:40.159Z,14.20
2018-06-25T04:00:15.806Z,14.20
2018-06-25T04:02:51.297Z,14.20
2018-06-25T04:05:26.793Z,14.20
2018-06-25T04:08:02.056Z,14.20
2018-06-25T04:10:37.692Z,14.20
2018-06-25T04:18:23.537Z,14.30
2018-06-25T04:23:34.018Z,14.40
2018-06-25T04:26:09.642Z,14.50
2018-06-25T04:28:45.096Z,14.50
2018-06-25T04:31:20.634Z,14.50
2018-06-25T04:33:56.993Z,14.50
2018-06-25T04:36:32.343Z,14.60
2018-06-25T04:39:09.922Z,14.60
2018-06-25T04:44:22.842Z,14.70
2018-06-25T04:46:58.213Z,14.70
2018-06-25T04:49:33.869Z,14.70
2018-06-25T04:52:09.509Z,14.80
2018-06-25T04:54:44.846Z,14.80
2018-06-25T04:57:20.410Z,14.80
2018-06-25T04:59:55.894Z,14.80
2018-06-25T05:02:31.811Z,14.80
2018-06-25T05:05:07.220Z,14.80
2018-06-25T05:07:42.734Z,14.80
2018-06-25T05:10:17.894Z,14.80
2018-06-25T05:12:53.482Z,14.80
2018-06-25T05:15:28.974Z,14.80
2018-06-25T05:18:04.786Z,14.80
2018-06-25T05:20:40.334Z,14.90
2018-06-25T05:23:15.922Z,14.90
2018-06-25T05:25:51.193Z,15.00
2018-06-25T05:28:26.873Z,15.00
2018-06-25T05:31:02.346Z,15.00
2018-06-25T05:33:37.865Z,15.00
2018-06-25T05:36:13.313Z,15.10
2018-06-25T05:41:23.955Z,15.20
2018-06-25T05:43:59.442Z,15.30
2018-06-25T05:46:34.826Z,15.30
2018-06-25T05:51:45.758Z,15.30
2018-06-25T05:54:21.078Z,15.30
2018-06-25T05:56:57.102Z,15.40
2018-06-25T05:59:32.517Z,15.50
2018-06-25T06:02:07.856Z,15.50
2018-06-25T06:04:44.438Z,15.50
2018-06-25T06:07:26.003Z,15.60
2018-06-25T06:10:01.687Z,15.70
2018-06-25T06:12:36.926Z,15.80
2018-06-25T06:17:47.611Z,15.90
2018-06-25T06:20:23.307Z,16.10
2018-06-25T06:22:58.729Z,16.40
2018-06-25T06:25:34.242Z,16.60
2018-06-25T06:28:09.629Z,16.70
2018-06-25T06:30:45.036Z,16.60
2018-06-25T06:33:20.294Z,16.70
2018-06-25T06:38:31.068Z,16.80
2018-06-25T06:41:06.820Z,17.00
2018-06-25T06:43:42.250Z,17.20
2018-06-25T06:46:17.842Z,17.40
2018-06-25T06:51:28.793Z,17.90
2018-06-25T06:54:04.526Z,17.80
2018-06-25T06:56:39.999Z,17.50
2018-06-25T06:59:15.279Z,17.20
2018-06-25T07:01:50.913Z,17.10
2018-06-25T07:04:26.272Z,16.90
2018-06-25T07:07:01.874Z,17.00
2018-06-25T07:09:37.285Z,16.90
2018-06-25T07:12:12.770Z,17.00
2018-06-25T07:17:23.554Z,16.90
2018-06-25T07:19:58.965Z,16.80
2018-06-25T07:25:09.670Z,16.70
2018-06-25T07:27:45.129Z,16.60
2018-06-25T07:30:20.370Z,16.60
2018-06-25T07:32:56.122Z,16.60
2018-06-25T07:35:31.554Z,16.50
2018-06-25T07:38:07.221Z,16.40
2018-06-25T07:40:42.620Z,16.30
2018-06-25T07:43:18.311Z,16.30
2018-06-25T07:45:53.991Z,16.30
2018-06-25T07:48:29.718Z,16.20
2018-06-25T07:51:05.374Z,16.10
2018-06-25T07:53:40.841Z,16.00
2018-06-25T07:56:16.334Z,15.90
2018-06-25T07:58:51.803Z,16.00
2018-06-25T08:04:09.038Z,15.90
2018-06-25T08:06:44.408Z,15.80
2018-06-25T08:09:19.930Z,15.90
2018-06-25T08:11:55.298Z,15.90
2018-06-25T08:14:30.822Z,15.90
2018-06-25T08:17:06.282Z,15.70
2018-06-25T08:19:41.719Z,15.80
2018-06-25T08:22:17.009Z,15.80
2018-06-25T08:24:52.600Z,15.90
2018-06-25T08:27:28.106Z,15.90
2018-06-25T08:30:03.943Z,16.00
2018-06-25T08:32:39.250Z,16.00
2018-06-25T08:35:14.996Z,16.10
2018-06-25T08:37:50.517Z,16.20
2018-06-25T08:40:26.087Z,16.20
2018-06-25T08:43:01.432Z,16.10
2018-06-25T08:48:12.234Z,16.00
2018-06-25T08:50:47.969Z,16.00
2018-06-25T08:53:23.258Z,16.00
2018-06-25T08:55:58.659Z,16.10
2018-06-25T08:58:34.141Z,16.10
2018-06-25T09:01:09.677Z,16.30
2018-06-25T09:03:45.128Z,16.50
2018-06-25T09:06:20.955Z,16.70
2018-06-25T09:08:56.797Z,16.60
2018-06-25T09:11:32.554Z,16.70
2018-06-25T09:14:08.393Z,16.70
2018-06-25T09:16:44.153Z,16.60
2018-06-25T09:19:19.478Z,16.60
2018-06-25T09:21:55.054Z,16.70
2018-06-25T09:24:30.516Z,16.70
2018-06-25T09:27:06.048Z,16.70
2018-06-25T09:29:41.366Z,16.60
2018-06-25T09:32:17.042Z,16.50
2018-06-25T09:34:52.404Z,16.60
2018-06-25T09:37:27.962Z,16.40
2018-06-25T09:40:03.465Z,16.40
2018-06-25T09:42:39.251Z,16.40
2018-06-25T09:45:14.575Z,16.50
2018-06-25T09:47:50.220Z,16.60
2018-06-25T09:50:25.769Z,16.60
2018-06-25T09:53:01.622Z,16.60
2018-06-25T09:55:37.108Z,16.70
2018-06-25T09:58:12.716Z,16.70
2018-06-25T10:03:28.766Z,16.50
2018-06-25T10:06:04.145Z,16.70
2018-06-25T10:08:39.829Z,16.80
2018-06-25T10:11:15.238Z,16.90
2018-06-25T10:13:50.819Z,16.80
2018-06-25T10:16:26.330Z,16.80
2018-06-25T10:19:01.789Z,16.80
2018-06-25T10:21:37.115Z,16.70
2018-06-25T10:24:12.801Z,16.70
2018-06-25T10:26:48.081Z,16.70
2018-06-25T10:29:23.585Z,16.70
2018-06-25T10:42:20.919Z,17.20
2018-06-25T10:44:56.465Z,17.30
2018-06-25T10:47:31.926Z,17.40
2018-06-25T10:50:07.554Z,17.60
2018-06-25T10:52:42.737Z,17.80
2018-06-25T10:55:18.233Z,17.90
2018-06-25T10:57:53.597Z,18.10
2018-06-25T11:00:29.256Z,17.90
2018-06-25T11:03:04.584Z,17.90
2018-06-25T11:05:40.121Z,18.20
2018-06-25T11:08:15.400Z,18.40
2018-06-25T11:13:25.949Z,18.60
2018-06-25T11:16:01.495Z,18.70
2018-06-25T11:18:39.238Z,18.80
2018-06-25T11:21:15.253Z,18.70
2018-06-25T11:23:50.605Z,19.00
2018-06-25T11:26:26.142Z,19.10
2018-06-25T11:29:01.491Z,19.40
2018-06-25T11:31:36.928Z,19.20
2018-06-25T11:34:12.398Z,19.40
2018-06-25T11:36:47.927Z,19.30
2018-06-25T11:39:23.136Z,19.20
2018-06-25T11:41:58.606Z,18.90
2018-06-25T11:44:33.829Z,19.00
2018-06-25T11:47:09.394Z,18.90
2018-06-25T11:49:45.058Z,18.80
2018-06-25T11:54:55.913Z,19.10
2018-06-25T11:57:31.490Z,19.20
2018-06-25T12:00:06.870Z,19.10
2018-06-25T12:02:42.748Z,19.20
2018-06-25T12:05:17.922Z,19.00
2018-06-25T12:07:53.465Z,19.00
2018-06-25T12:10:28.787Z,19.10
2018-06-25T12:13:04.326Z,19.10
2018-06-25T12:15:39.525Z,18.90
2018-06-25T12:18:14.945Z,18.90
2018-06-25T12:20:50.499Z,18.60
2018-06-25T12:23:26.165Z,18.70
2018-06-25T12:26:01.582Z,18.70
2018-06-25T12:28:37.129Z,18.80
2018-06-25T12:31:12.633Z,19.10
2018-06-25T12:33:48.227Z,19.20
2018-06-25T12:36:23.457Z,19.10
2018-06-25T12:38:59.113Z,18.80
2018-06-25T12:41:34.615Z,18.70
2018-06-25T12:46:45.169Z,18.70
2018-06-25T12:49:20.899Z,18.90
2018-06-25T12:51:56.558Z,19.10
2018-06-25T12:54:32.197Z,19.10
2018-06-25T12:57:07.611Z,19.20
2018-06-25T12:59:49.432Z,19.00
2018-06-25T13:02:24.865Z,19.10
2018-06-25T13:07:35.581Z,19.30
2018-06-25T13:10:11.174Z,19.30
2018-06-25T13:12:46.533Z,19.40
2018-06-25T13:15:21.946Z,19.60
2018-06-25T13:17:57.309Z,19.40
2018-06-25T13:20:32.934Z,19.30
2018-06-25T13:23:08.452Z,19.20
2018-06-25T13:25:44.211Z,19.10
2018-06-25T13:30:57.893Z,19.10
2018-06-25T13:33:33.110Z,19.50
2018-06-25T13:36:08.738Z,19.60
2018-06-25T13:38:44.237Z,19.50
2018-06-25T13:41:19.749Z,19.40
2018-06-25T13:43:55.170Z,19.40
2018-06-25T13:46:30.731Z,19.30
2018-06-25T13:49:06.329Z,19.50
2018-06-25T13:51:42.233Z,19.40
2018-06-25T13:54:17.553Z,19.50
2018-06-25T13:56:53.014Z,19.50
2018-06-25T13:59:28.505Z,19.40
2018-06-25T14:02:04.025Z,19.30
2018-06-25T14:07:14.693Z,19.50
2018-06-25T14:09:49.914Z,19.20
2018-06-25T14:12:25.577Z,18.90
2018-06-25T14:15:00.993Z,19.00
2018-06-25T14:17:36.704Z,18.80
2018-06-25T14:20:12.005Z,18.60
2018-06-25T14:22:47.730Z,18.30
2018-06-25T14:25:23.129Z,18.20
2018-06-25T14:28:03.992Z,18.20
2018-06-25T14:30:44.653Z,18.00
2018-06-25T14:33:24.253Z,18.10
2018-06-25T14:35:59.701Z,17.90
2018-06-25T14:38:36.309Z,17.60
2018-06-25T14:41:11.637Z,17.20
2018-06-25T14:43:47.306Z,17.20
2018-06-25T14:46:22.906Z,16.90
2018-06-25T14:48:58.513Z,16.70
2018-06-25T14:51:34.349Z,16.60
2018-06-25T14:54:09.916Z,16.40
2018-06-25T14:56:45.366Z,16.50
2018-06-25T14:59:20.747Z,16.50
2018-06-25T15:01:56.042Z,16.60
2018-06-25T15:04:31.581Z,16.60
2018-06-25T15:07:07.081Z,16.50
2018-06-25T15:09:42.577Z,16.50
2018-06-25T15:12:17.942Z,16.50
2018-06-25T15:14:53.361Z,16.50
2018-06-25T15:17:28.706Z,16.50
2018-06-25T15:20:04.179Z,16.50
2018-06-25T15:22:39.589Z,16.50
2018-06-25T15:25:15.246Z,16.40
2018-06-25T15:27:50.435Z,16.20
2018-06-25T15:30:25.848Z,16.20
2018-06-25T15:33:01.285Z,16.20
2018-06-25T15:35:36.725Z,16.40
2018-06-25T15:38:12.175Z,16.40
2018-06-25T15:43:22.590Z,16.60
2018-06-25T15:45:58.197Z,16.50
2018-06-25T15:51:09.471Z,16.50
2018-06-25T15:53:45.001Z,16.30
2018-06-25T15:56:20.494Z,16.10
2018-06-25T15:58:56.109Z,16.20
2018-06-25T16:01:31.692Z,16.20
2018-06-25T16:06:43.164Z,16.30
2018-06-25T16:09:18.531Z,16.30
2018-06-25T16:11:53.971Z,16.20
2018-06-25T16:14:29.323Z,16.20
2018-06-25T16:19:40.057Z,16.10
2018-06-25T16:22:15.555Z,16.00
2018-06-25T16:24:50.946Z,15.90
2018-06-25T16:27:26.650Z,16.00
2018-06-25T16:30:02.081Z,15.90
2018-06-25T16:32:37.860Z,15.90
2018-06-25T16:35:13.345Z,15.80
2018-06-25T16:37:48.833Z,15.80
2018-06-25T16:40:24.258Z,15.70
2018-06-25T16:42:59.855Z,15.70
2018-06-25T16:45:35.321Z,15.60
2018-06-25T16:48:10.981Z,15.60
2018-06-25T16:50:46.692Z,15.50
2018-06-25T16:53:22.427Z,15.60
2018-06-25T16:55:57.884Z,15.50
2018-06-25T16:58:33.315Z,15.50
2018-06-25T17:01:08.842Z,15.60
2018-06-25T17:03:44.340Z,15.70
2018-06-25T17:06:19.799Z,15.60
2018-06-25T17:08:55.314Z,15.70
2018-06-25T17:11:30.606Z,15.70
2018-06-25T17:14:06.195Z,15.60
2018-06-25T17:16:41.525Z,15.50
2018-06-25T17:19:17.285Z,15.40
2018-06-25T17:21:52.653Z,15.40
2018-06-25T17:24:28.303Z,15.30
2018-06-25T17:27:03.774Z,15.30
2018-06-25T17:29:39.268Z,15.30
2018-06-25T17:32:14.615Z,15.20
2018-06-25T17:34:50.238Z,15.10
2018-06-25T17:37:26.197Z,15.10
2018-06-25T17:40:01.975Z,15.00
2018-06-25T17:42:37.349Z,15.00
2018-06-25T17:47:47.902Z,14.90
2018-06-25T17:50:24.669Z,14.80
2018-06-25T17:52:59.914Z,14.90
2018-06-25T17:55:35.363Z,14.90
2018-06-25T17:58:10.608Z,14.80
2018-06-25T18:00:46.355Z,14.80
2018-06-25T18:03:21.713Z,14.70
2018-06-25T18:05:57.033Z,14.70
2018-06-25T18:08:32.242Z,14.70
2018-06-25T18:11:07.869Z,14.70
2018-06-25T18:13:43.200Z,14.70
2018-06-25T18:16:18.705Z,14.60
2018-06-25T18:18:54.294Z,14.50
2018-06-25T18:21:29.675Z,14.50
2018-06-25T18:24:05.149Z,14.40
2018-06-25T18:29:16.183Z,14.30
2018-06-25T18:31:51.795Z,14.40
2018-06-25T18:34:27.107Z,14.40
2018-06-25T18:37:02.507Z,14.40
2018-06-25T18:42:13.265Z,14.30
2018-06-25T18:44:48.941Z,14.30
2018-06-25T18:47:24.256Z,14.30
2018-06-25T18:49:59.729Z,14.30
2018-06-25T18:52:35.281Z,14.30
2018-06-25T18:55:10.582Z,14.30
2018-06-25T18:57:46.041Z,14.30
2018-06-25T19:00:21.363Z,14.30
2018-06-25T19:02:57.027Z,14.30
2018-06-25T19:05:32.586Z,14.30
2018-06-25T19:08:08.053Z,14.30
2018-06-25T19:10:43.405Z,14.30
2018-06-25T19:13:18.921Z,14.30
2018-06-25T19:15:54.291Z,14.30
2018-06-25T19:18:29.964Z,14.30
2018-06-25T19:21:05.450Z,14.40
2018-06-25T19:23:40.926Z,14.40
2018-06-25T19:26:16.457Z,14.40
2018-06-25T19:28:51.899Z,14.30
2018-06-25T19:31:27.341Z,14.30
2018-06-25T19:34:02.890Z,14.30
2018-06-25T19:36:38.353Z,14.20
2018-06-25T19:39:14.497Z,14.20
2018-06-25T19:41:49.945Z,14.20
2018-06-25T19:44:25.487Z,14.20
2018-06-25T19:47:00.922Z,14.20
2018-06-25T19:49:36.481Z,14.20
2018-06-25T19:52:12.025Z,14.10
2018-06-25T19:54:47.469Z,14.10
2018-06-25T19:57:23.105Z,14.10
2018-06-25T19:59:58.769Z,14.00
2018-06-25T20:02:34.200Z,14.00
2018-06-25T20:05:09.866Z,14.00
2018-06-25T20:07:45.175Z,14.00
2018-06-25T20:10:20.779Z,14.00
2018-06-25T20:12:56.203Z,14.00
2018-06-25T20:15:31.650Z,14.10
2018-06-25T20:18:07.238Z,14.10
2018-06-25T20:20:42.840Z,14.00
2018-06-25T20:23:18.340Z,14.10
2018-06-25T20:28:29.015Z,14.00
2018-06-25T20:31:04.621Z,14.00
2018-06-25T20:33:40.157Z,13.90
2018-06-25T20:38:50.541Z,14.00
2018-06-25T20:41:25.989Z,13.90
2018-06-25T20:44:01.221Z,13.90
2018-06-25T20:46:36.789Z,13.90
2018-06-25T20:49:12.139Z,13.90
2018-06-25T20:51:47.878Z,13.90
2018-06-25T20:54:23.255Z,13.90
2018-06-25T20:56:58.788Z,13.90
2018-06-25T20:59:34.231Z,13.90
2018-06-25T21:02:09.761Z,13.90
2018-06-25T21:04:45.284Z,13.90
2018-06-25T21:07:20.868Z,13.90
2018-06-25T21:09:56.298Z,13.90
2018-06-25T21:12:31.702Z,13.90
2018-06-25T21:15:07.269Z,13.90
2018-06-25T21:17:42.842Z,13.80
2018-06-25T21:20:18.185Z,13.80
2018-06-25T21:22:53.852Z,13.80
2018-06-25T21:25:29.243Z,13.80
2018-06-25T21:28:04.526Z,13.80
2018-06-25T21:30:39.846Z,13.80
2018-06-25T21:33:15.401Z,13.80
2018-06-25T21:35:50.600Z,13.70
2018-06-25T21:38:26.086Z,13.70
2018-06-25T21:41:01.271Z,13.70
2018-06-25T21:43:36.878Z,13.70
2018-06-25T21:46:12.386Z,13.70
2018-06-25T21:48:47.765Z,13.80
2018-06-25T21:51:23.350Z,13.70
2018-06-25T21:59:09.872Z,13.70
2018-06-25T22:01:51.754Z,13.70
2018-06-25T22:04:28.122Z,13.70
2018-06-25T22:07:03.413Z,13.70
2018-06-25T22:09:38.918Z,13.70
2018-06-25T22:12:14.362Z,13.70
2018-06-25T22:14:49.897Z,13.70
2018-06-25T22:20:00.999Z,13.70
2018-06-25T22:22:36.522Z,13.70
2018-06-25T22:25:11.982Z,13.70
2018-06-25T22:27:47.430Z,13.70
2018-06-25T22:30:23.174Z,13.70
2018-06-25T22:32:58.481Z,13.70
2018-06-25T22:35:34.096Z,13.70
2018-06-25T22:38:09.397Z,13.70
2018-06-25T22:40:44.858Z,13.70
2018-06-25T22:43:20.287Z,13.70
2018-06-25T22:45:55.857Z,13.80
2018-06-25T22:48:31.077Z,13.70
2018-06-25T22:51:07.054Z,13.80
2018-06-25T22:53:42.518Z,13.80
2018-06-25T22:56:17.938Z,13.70
2018-06-25T22:58:53.433Z,13.80
2018-06-25T23:01:29.654Z,13.80
2018-06-25T23:04:04.957Z,13.80
2018-06-25T23:06:40.438Z,13.70
2018-06-25T23:11:51.061Z,13.70
2018-06-25T23:14:33.167Z,13.70
2018-06-25T23:17:08.769Z,13.70
2018-06-25T23:19:44.046Z,13.70
2018-06-25T23:22:19.580Z,13.70
2018-06-25T23:24:54.781Z,13.70
2018-06-25T23:27:30.346Z,13.70
2018-06-25T23:30:06.086Z,13.70
2018-06-25T23:32:41.541Z,13.70
2018-06-25T23:35:17.070Z,13.80
2018-06-25T23:40:27.688Z,13.80
2018-06-25T23:43:03.101Z,13.80
2018-06-25T23:45:38.588Z,13.80
2018-06-25T23:48:14.218Z,13.80
2018-06-25T23:50:49.893Z,13.80
2018-06-25T23:56:03.513Z,13.70
2018-06-25T23:58:39.166Z,13.70
